Time;durP1;ratioP1;P1;durP2;ratioP2;P2;SDS_P1;SDS_P2;PMS_P1;PMS_P2;Temp;Humidity;BMP_temperature;BMP_pressure;BME280_temperature;BME280_humidity;BME280_pressure;Samples;Min_cycle;Max_cycle;Signal;HPM_P1;HPM_P2
2020/12/22 00:01:14;;;;;;;10.07;3.28;;;;;;;4.62;95.84;100005.06;5057254;28;20112;-87
2020/12/22 00:03:41;;;;;;;24.02;4.65;;;;;;;4.57;95.57;99994.41;5047902;28;20596;-87
2020/12/22 00:06:07;;;;;;;7.22;5.97;;;;;;;4.68;95.17;100013.75;5039461;28;20401;-88
2020/12/22 00:08:32;;;;;;;7.75;4.00;;;;;;;4.62;95.09;100004.28;5058115;28;20029;-87
2020/12/22 00:10:58;;;;;;;4.65;4.22;;;;;;;4.68;95.69;100013.75;5043318;28;20036;-88
2020/12/22 00:13:23;;;;;;;4.22;3.85;;;;;;;4.69;95.26;100012.59;5038052;28;20124;-85
2020/12/22 00:15:49;;;;;;;4.10;3.78;;;;;;;4.66;95.33;100007.84;5038010;28;20037;-86
2020/12/22 00:18:16;;;;;;;10.63;4.72;;;;;;;4.63;95.07;100014.88;5037987;28;20447;-86
2020/12/22 00:20:42;;;;;;;1.40;1.40;;;;;;;4.64;95.48;100015.66;5055549;28;20029;-86
2020/12/22 00:23:08;;;;;;;5.85;5.32;;;;;;;4.76;95.21;100027.19;5042955;28;20016;-86
2020/12/22 00:25:44;;;;;;;1.30;1.30;;;;;;;4.70;95.40;100019.66;5046713;28;20036;-85
2020/12/22 00:28:11;;;;;;;2.28;2.17;;;;;;;4.52;94.89;99991.19;5018377;28;20025;-87
2020/12/22 00:30:37;;;;;;;1.45;1.45;;;;;;;4.42;95.42;99987.09;5018186;28;20053;-87
2020/12/22 00:33:03;;;;;;;2.80;2.60;;;;;;;4.57;95.35;100012.78;5042432;28;20028;-86
2020/12/22 00:35:29;;;;;;;4.60;4.25;;;;;;;4.69;95.22;100023.56;5057596;28;20039;-86
2020/12/22 00:37:55;;;;;;;2.05;1.95;;;;;;;4.69;95.98;100031.78;5057657;28;20115;-90
2020/12/22 00:40:20;;;;;;;7.93;4.45;;;;;;;4.69;95.66;100032.56;5057405;28;20036;-89
2020/12/22 00:42:46;;;;;;;2.97;2.72;;;;;;;4.70;95.72;100052.53;5057727;28;20028;-89
2020/12/22 00:45:11;;;;;;;3.25;2.13;;;;;;;4.69;96.03;100037.25;5040236;28;20472;-90
2020/12/22 00:47:36;;;;;;;3.60;2.78;;;;;;;4.71;95.58;100030.22;5045926;28;20025;-90
2020/12/22 00:50:02;;;;;;;5.32;4.70;;;;;;;4.63;95.52;100019.53;5038256;28;20048;-90
2020/12/22 00:52:28;;;;;;;4.43;4.13;;;;;;;4.71;95.08;100019.28;5046920;28;20048;-89
2020/12/22 00:54:53;;;;;;;3.20;2.75;;;;;;;4.70;95.27;100030.63;5049555;28;20167;-90
2020/12/22 00:57:19;;;;;;;2.53;2.42;;;;;;;4.62;95.73;100021.50;5037324;28;20158;-91
2020/12/22 00:59:44;;;;;;;2.08;1.98;;;;;;;4.60;96.33;100032.00;5037147;28;20056;-89
2020/12/22 01:02:10;;;;;;;1.40;1.40;;;;;;;4.60;96.17;100034.72;5055631;28;20025;-90
2020/12/22 01:04:35;;;;;;;1.42;1.35;;;;;;;4.58;96.52;100026.09;5037097;28;20032;-90
2020/12/22 01:07:01;;;;;;;6.05;2.38;;;;;;;4.67;96.35;100028.59;5037559;28;20028;-91
2020/12/22 01:09:27;;;;;;;1.90;1.80;;;;;;;4.67;95.96;100029.38;5037234;28;20059;-89
2020/12/22 01:11:52;;;;;;;2.53;2.40;;;;;;;4.61;96.00;100013.63;5037225;28;20078;-91
2020/12/22 01:14:18;;;;;;;5.63;4.00;;;;;;;4.60;95.81;100020.25;5040297;28;20451;-90
2020/12/22 01:16:43;;;;;;;5.25;3.65;;;;;;;4.70;95.44;100016.94;5045918;28;20481;-89
2020/12/22 01:19:09;;;;;;;4.60;4.25;;;;;;;4.68;95.32;100021.97;5051971;28;20032;-91
2020/12/22 01:21:35;;;;;;;3.08;2.90;;;;;;;4.73;95.39;100027.94;5042556;28;20025;-91
2020/12/22 01:24:04;;;;;;;2.65;2.50;;;;;;;4.23;95.63;99962.50;5036877;28;20107;-91
2020/12/22 01:26:29;;;;;;;6.07;5.03;;;;;;;4.50;95.85;100014.25;5036141;28;20504;-91
2020/12/22 01:28:55;;;;;;;2.58;2.45;;;;;;;4.67;95.35;100021.19;5037099;28;20029;-89
2020/12/22 01:31:28;;;;;;;1.83;1.60;;;;;;;4.68;95.50;100025.50;5053794;28;20043;-89
2020/12/22 01:33:54;;;;;;;4.63;2.10;;;;;;;4.50;96.33;100022.44;5045564;28;20029;-87
2020/12/22 01:36:21;;;;;;;2.70;1.60;;;;;;;4.40;96.41;100000.38;5021927;28;20112;-86
2020/12/22 01:38:47;;;;;;;3.92;2.70;;;;;;;4.34;96.23;99974.47;5024653;28;20089;-87
2020/12/22 01:41:14;;;;;;;3.97;3.17;;;;;;;4.37;95.95;99980.00;5056328;28;20115;-87
2020/12/22 01:43:40;;;;;;;3.63;2.20;;;;;;;4.65;95.63;100023.47;5073317;28;20032;-87
2020/12/22 01:46:06;;;;;;;1.58;1.58;;;;;;;4.69;95.77;100013.41;5042772;28;20074;-88
2020/12/22 01:48:33;;;;;;;2.25;2.10;;;;;;;4.65;95.96;100006.25;5036434;28;20106;-88
2020/12/22 01:50:58;;;;;;;2.40;2.30;;;;;;;4.60;95.90;100010.09;5036307;28;20029;-87
2020/12/22 01:53:24;;;;;;;9.43;4.90;;;;;;;4.56;96.54;99997.50;5036629;28;20032;-88
2020/12/22 01:55:50;;;;;;;7.10;3.70;;;;;;;4.60;96.53;100001.09;5044715;28;20052;-87
2020/12/22 01:58:15;;;;;;;2.92;2.80;;;;;;;4.61;96.29;99997.22;5050748;28;20069;-88
2020/12/22 02:00:42;;;;;;;7.68;4.53;;;;;;;4.60;96.06;99996.41;5048253;28;20106;-89
2020/12/22 02:03:08;;;;;;;3.83;2.33;;;;;;;4.57;96.28;100002.63;5035926;28;20044;-87
2020/12/22 02:05:36;;;;;;;3.22;2.88;;;;;;;4.37;96.41;99971.78;5035947;28;20045;-90
2020/12/22 02:08:02;;;;;;;2.72;2.58;;;;;;;4.47;96.70;99986.78;5041138;28;20182;-89
2020/12/22 02:10:27;;;;;;;4.35;1.85;;;;;;;4.53;96.56;100000.97;5036006;28;20492;-87
2020/12/22 02:12:53;;;;;;;4.38;3.50;;;;;;;4.55;96.43;99993.19;5035980;28;20029;-86
2020/12/22 02:15:18;;;;;;;9.25;3.28;;;;;;;4.58;96.20;99990.50;5042959;28;20094;-89
2020/12/22 02:17:45;;;;;;;5.72;5.03;;;;;;;4.54;96.72;99992.41;5038667;28;20024;-87
2020/12/22 02:20:11;;;;;;;11.18;4.53;;;;;;;4.52;96.42;99994.72;5055606;28;20028;-89
2020/12/22 02:22:37;;;;;;;3.85;3.65;;;;;;;4.46;96.15;99991.47;5050269;28;20035;-88
2020/12/22 02:25:11;;;;;;;4.95;4.55;;;;;;;4.40;96.74;99989.44;5055715;28;20436;-89
2020/12/22 02:27:36;;;;;;;3.97;3.67;;;;;;;4.41;95.77;99991.78;5048164;28;20146;-91
2020/12/22 02:30:05;;;;;;;3.33;2.95;;;;;;;4.43;95.97;99989.47;5054044;28;20043;-90
2020/12/22 02:32:31;;;;;;;3.42;3.08;;;;;;;4.41;96.21;99988.25;5053538;28;20224;-89
2020/12/22 02:34:56;;;;;;;1.48;1.48;;;;;;;4.40;96.11;100000.38;5042021;28;20029;-89
2020/12/22 02:37:22;;;;;;;2.95;2.75;;;;;;;4.35;96.25;99998.72;5055610;28;20103;-88
2020/12/22 02:39:49;;;;;;;13.35;4.15;;;;;;;4.29;95.92;99988.41;5055301;28;20032;-88
2020/12/22 02:42:15;;;;;;;8.13;5.00;;;;;;;4.23;96.42;99993.41;5035452;28;20029;-87
2020/12/22 02:44:40;;;;;;;2.97;2.72;;;;;;;4.19;97.07;99994.50;5035706;28;20035;-89
2020/12/22 02:47:14;;;;;;;5.30;4.63;;;;;;;4.19;97.27;99987.06;5043993;28;20028;-88
2020/12/22 02:49:41;;;;;;;7.75;5.25;;;;;;;4.09;97.38;99977.53;5035394;28;20057;-88
2020/12/22 02:52:07;;;;;;;14.57;9.43;;;;;;;4.15;97.24;100002.63;5039410;28;20033;-88
2020/12/22 02:54:33;;;;;;;7.20;6.57;;;;;;;3.97;97.82;99983.16;5035256;28;20566;-88
2020/12/22 02:56:58;;;;;;;4.90;4.45;;;;;;;4.05;98.75;99984.84;5052223;28;20111;-87
2020/12/22 02:59:24;;;;;;;2.35;2.20;;;;;;;3.60;98.90;99954.66;5055165;28;20029;-89
2020/12/22 03:01:49;;;;;;;3.53;3.22;;;;;;;3.71;100.00;99974.81;5035372;28;20112;-90
2020/12/22 03:04:15;;;;;;;2.33;2.22;;;;;;;3.80;100.00;99994.50;5035389;28;20491;-87
2020/12/22 03:06:40;;;;;;;3.42;3.13;;;;;;;3.85;100.00;99986.03;5034672;28;20474;-89
2020/12/22 03:09:07;;;;;;;4.07;3.70;;;;;;;3.68;100.00;99942.72;5042262;28;20518;-87
2020/12/22 03:11:33;;;;;;;1.75;1.75;;;;;;;3.86;99.58;99982.13;5040898;28;20037;-87
2020/12/22 03:13:58;;;;;;;6.20;5.05;;;;;;;3.77;100.00;99987.03;5054065;28;20039;-90
2020/12/22 03:16:23;;;;;;;2.78;2.65;;;;;;;3.68;100.00;99967.31;5054974;28;20039;-89
2020/12/22 03:18:49;;;;;;;9.00;7.85;;;;;;;3.58;100.00;99976.88;5042734;28;20404;-87
2020/12/22 03:21:16;;;;;;;7.55;4.00;;;;;;;3.52;100.00;99972.84;5035800;28;20025;-89
2020/12/22 03:23:41;;;;;;;3.85;3.58;;;;;;;3.63;100.00;99981.25;5047630;28;20060;-89
2020/12/22 03:26:07;;;;;;;4.47;4.03;;;;;;;3.66;100.00;99984.09;5035080;28;20086;-89
2020/12/22 03:28:32;;;;;;;1.90;1.80;;;;;;;3.56;100.00;99981.91;5036000;28;20056;-89
2020/12/22 03:30:58;;;;;;;4.60;4.05;;;;;;;3.46;100.00;99979.75;5035189;28;20495;-90
2020/12/22 03:33:24;;;;;;;1.55;1.45;;;;;;;3.47;100.00;99966.88;5035125;28;20409;-88
2020/12/22 03:35:50;;;;;;;5.38;5.07;;;;;;;3.54;100.00;99986.16;5038006;28;20025;-89
2020/12/22 03:38:15;;;;;;;9.27;4.38;;;;;;;3.51;100.00;99978.66;5071623;28;20484;-89
2020/12/22 03:40:41;;;;;;;2.90;2.70;;;;;;;3.53;100.00;99979.91;5034565;28;20032;-90
2020/12/22 03:43:06;;;;;;;22.88;3.97;;;;;;;3.44;100.00;99964.84;5052391;28;20052;-88
2020/12/22 03:45:32;;;;;;;3.22;2.95;;;;;;;3.45;100.00;99969.16;5034983;28;20033;-90
2020/12/22 03:47:57;;;;;;;4.43;3.80;;;;;;;3.58;100.00;99981.53;5041268;28;20478;-89
2020/12/22 03:50:23;;;;;;;5.47;4.90;;;;;;;3.71;100.00;99987.66;5054661;28;20025;-90
2020/12/22 03:52:48;;;;;;;5.78;5.13;;;;;;;3.92;100.00;99988.09;5054616;28;20028;-90
2020/12/22 03:55:15;;;;;;;4.05;3.05;;;;;;;4.07;100.00;99989.97;5040879;28;20029;-86
2020/12/22 03:57:40;;;;;;;5.72;5.20;;;;;;;4.17;100.00;99988.56;5037851;28;20120;-88
2020/12/22 04:00:06;;;;;;;6.45;3.58;;;;;;;4.04;99.63;99950.44;5054562;28;20494;-89
2020/12/22 04:02:32;;;;;;;3.72;2.45;;;;;;;4.11;99.27;99982.63;5055243;28;20094;-89
2020/12/22 04:04:57;;;;;;;7.72;5.15;;;;;;;4.08;99.86;99973.22;5054563;28;20481;-87
2020/12/22 04:07:23;;;;;;;7.82;4.60;;;;;;;4.13;99.26;99968.59;5046753;28;20025;-89
2020/12/22 04:09:48;;;;;;;3.88;3.67;;;;;;;4.09;99.41;99972.06;5038234;28;20083;-87
2020/12/22 04:12:14;;;;;;;3.03;2.83;;;;;;;3.92;99.86;99968.97;5038353;28;20025;-89
2020/12/22 04:14:39;;;;;;;3.55;3.28;;;;;;;3.90;100.00;99972.06;5038351;28;20118;-89
2020/12/22 04:17:05;;;;;;;16.17;3.60;;;;;;;3.84;100.00;99975.44;5037592;28;20033;-87
2020/12/22 04:19:30;;;;;;;3.47;3.20;;;;;;;3.75;100.00;99948.31;5038022;28;20021;-86
2020/12/22 04:21:56;;;;;;;4.65;4.15;;;;;;;3.92;100.00;99958.03;5038005;28;20025;-87
2020/12/22 04:24:21;;;;;;;10.60;4.07;;;;;;;4.00;100.00;99971.47;5046950;28;20094;-88
2020/12/22 04:26:47;;;;;;;4.20;3.85;;;;;;;4.05;100.00;99970.38;5038103;28;20021;-87
2020/12/22 04:29:12;;;;;;;5.28;3.60;;;;;;;4.15;100.00;99966.28;5047855;28;20090;-87
2020/12/22 04:31:38;;;;;;;8.38;4.78;;;;;;;4.22;100.00;99966.44;5042511;28;20029;-85
2020/12/22 04:34:03;;;;;;;7.68;4.38;;;;;;;4.02;100.00;99930.91;5058458;28;20081;-86
2020/12/22 04:36:29;;;;;;;3.85;3.22;;;;;;;4.40;99.18;99971.03;5052473;28;20476;-87
2020/12/22 04:38:55;;;;;;;4.68;4.25;;;;;;;4.42;98.55;99967.94;5056833;28;20458;-86
2020/12/22 04:41:23;;;;;;;4.15;3.05;;;;;;;4.26;98.01;99934.44;5038105;28;20103;-87
2020/12/22 04:43:50;;;;;;;3.05;2.92;;;;;;;4.54;96.56;99961.50;5037484;28;20090;-85
2020/12/22 04:46:22;;;;;;;3.60;3.40;;;;;;;4.49;96.54;99959.88;5037957;28;20467;-87
2020/12/22 04:48:56;;;;;;;23.70;4.40;;;;;;;4.29;96.48;99945.44;5037509;28;20025;-87
2020/12/22 04:51:24;;;;;;;3.25;3.00;;;;;;;4.42;96.89;99965.22;5037819;28;20029;-86
2020/12/22 04:53:50;;;;;;;2.40;2.30;;;;;;;4.32;97.64;99971.28;5070876;28;20077;-85
2020/12/22 04:56:16;;;;;;;3.60;2.78;;;;;;;4.36;98.02;99972.13;5057479;28;20033;-86
2020/12/22 04:58:42;;;;;;;4.53;4.07;;;;;;;4.07;97.56;99927.06;5052024;28;20037;-90
2020/12/22 05:01:07;;;;;;;4.20;3.90;;;;;;;4.32;97.52;99963.88;5053408;28;20070;-89
2020/12/22 05:03:33;;;;;;;4.30;3.42;;;;;;;4.25;97.80;99960.22;5057179;28;20055;-92
2020/12/22 05:05:59;;;;;;;14.07;4.53;;;;;;;4.21;97.93;99970.31;5056953;28;20071;-90
2020/12/22 05:08:24;;;;;;;1.63;1.52;;;;;;;4.04;98.36;99955.91;5046704;28;20032;-89
2020/12/22 05:10:51;;;;;;;0.63;0.63;;;;;;;4.15;98.75;99972.56;5046444;28;20036;-88
2020/12/22 05:13:18;;;;;;;6.80;4.03;;;;;;;4.06;99.31;99970.03;5057293;28;20473;-87
2020/12/22 05:15:49;;;;;;;2.15;2.05;;;;;;;4.17;99.15;99980.38;5057029;28;20123;-87
2020/12/22 05:18:15;;;;;;;1.02;1.02;;;;;;;4.27;98.92;99979.81;5056679;28;20021;-86
2020/12/22 05:20:42;;;;;;;20.20;3.03;;;;;;;4.33;98.66;99981.88;5056663;28;20032;-86
2020/12/22 05:23:12;;;;;;;4.72;4.28;;;;;;;4.40;97.98;99992.16;5056953;28;20551;-87
2020/12/22 05:25:38;;;;;;;7.88;5.80;;;;;;;4.40;97.25;99984.72;5056750;28;20029;-88
2020/12/22 05:28:06;;;;;;;4.68;3.97;;;;;;;4.22;97.09;99966.44;5047950;28;20025;-86
2020/12/22 05:30:32;;;;;;;4.05;2.53;;;;;;;4.30;97.04;99996.28;5037165;28;20055;-88
2020/12/22 05:32:57;;;;;;;4.75;2.92;;;;;;;4.15;97.57;99985.44;5056604;28;20029;-90
2020/12/22 05:35:23;;;;;;;2.95;2.70;;;;;;;4.23;97.28;100001.59;5056743;28;20499;-89
2020/12/22 05:37:51;;;;;;;10.95;4.90;;;;;;;4.27;97.25;100007.94;5046015;28;20025;-88
2020/12/22 05:40:18;;;;;;;1.63;1.63;;;;;;;4.24;97.58;100007.88;5040890;28;20017;-89
2020/12/22 05:42:45;;;;;;;3.40;3.17;;;;;;;4.27;97.59;100012.63;5056398;28;20511;-87
2020/12/22 05:45:11;;;;;;;3.37;3.23;;;;;;;4.14;97.94;100000.25;5048383;28;20033;-88
2020/12/22 05:47:37;;;;;;;1.73;1.63;;;;;;;4.28;97.68;99998.56;5053857;28;20553;-88
2020/12/22 05:50:03;;;;;;;5.05;4.65;;;;;;;4.32;97.71;100012.31;5036437;28;20024;-90
2020/12/22 05:52:30;;;;;;;5.93;3.25;;;;;;;4.27;97.64;100015.38;5049437;28;20086;-89
2020/12/22 05:54:56;;;;;;;1.17;1.17;;;;;;;4.23;97.55;100009.81;5036361;28;20029;-88
2020/12/22 05:57:27;;;;;;;6.78;4.28;;;;;;;4.21;97.09;99994.94;5037154;28;20066;-88
2020/12/22 05:59:54;;;;;;;2.08;1.77;;;;;;;4.47;96.72;100025.09;5055740;28;20116;-88
2020/12/22 06:02:30;;;;;;;4.50;4.18;;;;;;;4.15;96.39;99952.63;5054968;28;20113;-94
2020/12/22 06:05:03;;;;;;;2.90;2.70;;;;;;;4.50;95.26;100010.72;5036170;28;20045;-91
2020/12/22 06:07:29;;;;;;;2.28;2.17;;;;;;;4.22;96.13;99988.31;5036700;28;20032;-88
2020/12/22 06:09:55;;;;;;;5.70;5.25;;;;;;;4.52;96.11;100016.63;5035969;28;20089;-89
2020/12/22 06:12:22;;;;;;;9.60;5.40;;;;;;;4.46;95.78;99999.69;5035968;28;20040;-89
2020/12/22 06:14:50;;;;;;;8.45;2.17;;;;;;;4.53;95.96;100004.50;5035873;28;20056;-88
2020/12/22 06:17:16;;;;;;;;;;;;;;;4.54;95.37;100008.03;5054061;28;20546;-88
2020/12/22 06:19:43;;;;;;;5.95;3.50;;;;;;;4.30;95.10;99968.13;5040080;28;19967;-91
2020/12/22 06:22:15;;;;;;;5.50;5.00;;;;;;;4.51;94.74;100001.34;5038795;28;20085;-87
2020/12/22 06:24:52;;;;;;;5.15;3.83;;;;;;;4.70;94.68;100017.69;5073323;28;20036;-88
2020/12/22 06:27:17;;;;;;;7.05;6.05;;;;;;;4.54;94.58;99989.66;5055436;28;20146;-88
2020/12/22 06:29:44;;;;;;;5.18;3.55;;;;;;;4.51;93.76;99974.00;5054491;28;20131;-90
2020/12/22 06:32:16;;;;;;;8.98;8.15;;;;;;;4.67;92.78;100007.50;5055463;28;20388;-92
2020/12/22 06:34:42;;;;;;;3.60;2.95;;;;;;;4.56;93.37;100017.47;5052252;28;20511;-90
2020/12/22 06:37:08;;;;;;;6.82;3.63;;;;;;;4.60;93.66;100012.84;5035195;28;20029;-93
2020/12/22 06:39:44;;;;;;;11.60;7.13;;;;;;;4.59;93.70;100022.19;5054605;28;20028;-91
2020/12/22 06:42:30;;;;;;;8.98;5.30;;;;;;;4.58;94.10;100001.44;5055255;28;20484;-91
2020/12/22 06:45:16;;;;;;;4.00;3.65;;;;;;;4.70;93.68;100004.00;5042537;28;20068;-90
2020/12/22 06:47:41;;;;;;;13.82;6.60;;;;;;;4.69;93.56;100010.66;5021253;28;20060;-87
2020/12/22 06:50:07;;;;;;;3.88;3.50;;;;;;;4.60;93.82;99996.41;5035205;28;20469;-92
2020/12/22 06:52:37;;;;;;;4.15;3.88;;;;;;;4.74;93.25;99999.41;5034848;28;20036;-91
2020/12/22 06:55:05;;;;;;;4.03;3.67;;;;;;;4.91;93.35;100004.38;5055055;28;20499;-92
2020/12/22 06:57:40;;;;;;;;;;;;;;;4.93;91.76;100014.19;5041634;28;20025;-94
2020/12/22 07:00:07;;;;;;;8.57;7.43;;;;;;;4.83;92.63;100007.34;5040607;28;19913;-95
2020/12/22 07:02:36;;;;;;;9.38;6.13;;;;;;;4.76;92.29;100007.25;5015300;28;20116;-92
2020/12/22 07:05:04;;;;;;;8.10;4.47;;;;;;;4.51;92.23;99965.78;5032795;28;20048;-92
2020/12/22 07:07:48;;;;;;;;;;;;;;;4.84;91.93;100017.16;5018933;28;20022;-92
2020/12/22 07:10:14;;;;;;;4.53;4.28;;;;;;;4.43;91.89;99975.00;5015240;28;19917;-92
2020/12/22 07:12:40;;;;;;;5.53;4.10;;;;;;;4.62;92.53;100017.97;5015118;28;20516;-86
2020/12/22 07:15:06;;;;;;;11.95;9.50;;;;;;;4.75;91.90;100001.00;5016049;28;20095;-89
2020/12/22 07:17:33;;;;;;;8.02;5.13;;;;;;;4.61;92.47;100006.22;5025004;28;20033;-92
2020/12/22 07:19:59;;;;;;;10.55;6.18;;;;;;;4.33;93.74;100016.66;5038563;28;20029;-91
2020/12/22 07:22:25;;;;;;;7.38;6.68;;;;;;;4.50;93.64;100006.03;5044685;28;20039;-88
2020/12/22 07:24:51;;;;;;;6.97;6.40;;;;;;;4.31;93.64;99961.50;5054574;28;20029;-91
2020/12/22 07:27:16;;;;;;;8.10;7.55;;;;;;;4.56;93.65;100003.78;5056842;28;20037;-91
2020/12/22 07:29:42;;;;;;;11.02;10.23;;;;;;;4.87;93.31;100002.75;5050186;28;20036;-94
2020/12/22 07:32:08;;;;;;;19.55;9.38;;;;;;;5.15;92.23;99996.91;5054919;28;20177;-92
2020/12/22 07:38:10;;;;;;;4.28;4.03;;;;;;;5.56;90.54;99998.69;5037003;28;20047;-91
2020/12/22 07:40:39;;;;;;;25.23;9.57;;;;;;;5.50;89.74;99975.50;5034743;28;20040;-90
2020/12/22 07:43:10;;;;;;;7.13;5.15;;;;;;;5.07;89.01;99943.97;5039558;28;20030;-90
2020/12/22 07:45:36;;;;;;;4.93;4.40;;;;;;;5.51;90.20;100009.19;5058897;28;20469;-90
2020/12/22 07:48:06;;;;;;;4.45;4.20;;;;;;;5.79;87.57;99987.63;5053171;28;20108;-88
2020/12/22 07:50:31;;;;;;;7.82;6.85;;;;;;;5.72;86.51;99996.56;5056251;28;20056;-91
2020/12/22 07:52:58;;;;;;;12.57;7.18;;;;;;;5.70;86.59;100007.13;5038292;28;20025;-90
2020/12/22 07:55:23;;;;;;;2.60;2.47;;;;;;;5.70;87.07;99995.34;5038413;28;20535;-88
2020/12/22 07:57:51;;;;;;;6.97;6.25;;;;;;;5.20;88.91;99955.50;5038311;28;20021;-88
2020/12/22 08:00:16;;;;;;;8.68;7.65;;;;;;;5.39;88.41;99976.53;5037378;28;20059;-89
2020/12/22 08:02:42;;;;;;;9.70;7.40;;;;;;;5.59;88.47;99999.91;5038608;28;20033;-90
2020/12/22 08:05:12;;;;;;;10.18;7.88;;;;;;;5.64;88.19;99997.63;5033980;28;20053;-85
2020/12/22 08:07:39;;;;;;;9.63;5.82;;;;;;;5.31;89.49;99970.94;5038875;28;20021;-87
2020/12/22 08:10:15;;;;;;;16.00;10.60;;;;;;;5.62;88.73;99967.06;5038289;28;20171;-90
2020/12/22 08:12:42;;;;;;;19.98;8.23;;;;;;;5.45;89.10;99961.34;5047551;28;20108;-87
2020/12/22 08:15:10;;;;;;;10.93;6.05;;;;;;;5.07;91.01;99963.16;5054728;28;20040;-90
2020/12/22 08:17:39;;;;;;;4.07;3.72;;;;;;;5.32;90.73;99966.25;5041929;28;20025;-89
2020/12/22 08:20:06;;;;;;;13.18;6.85;;;;;;;5.34;90.61;99980.38;5037904;28;20075;-91
2020/12/22 08:22:32;;;;;;;17.58;8.18;;;;;;;5.79;88.50;99946.50;5031872;28;20036;-86
2020/12/22 08:25:01;;;;;;;20.55;8.15;;;;;;;6.11;85.90;99952.38;5038011;28;20044;-84
2020/12/22 08:27:29;;;;;;;10.85;6.00;;;;;;;6.43;84.32;99980.94;5037743;28;20021;-84
2020/12/22 08:29:54;;;;;;;24.98;9.73;;;;;;;6.14;85.11;99979.06;5056923;28;20104;-85
2020/12/22 08:32:23;;;;;;;5.90;5.40;;;;;;;5.98;85.91;99978.47;5037536;28;20453;-86
2020/12/22 08:34:52;;;;;;;8.95;7.10;;;;;;;6.25;85.58;99988.22;5037025;28;20083;-86
2020/12/22 08:37:27;;;;;;;6.82;6.32;;;;;;;5.80;86.70;99939.06;5040777;28;20051;-87
2020/12/22 08:39:54;;;;;;;8.05;6.85;;;;;;;5.80;87.99;99982.94;5055546;28;20063;-93
2020/12/22 08:42:21;;;;;;;11.60;8.27;;;;;;;6.10;87.26;99970.00;5034687;28;20039;-88
2020/12/22 08:44:51;;;;;;;21.67;9.77;;;;;;;6.30;84.72;99974.16;5026408;28;20037;-88
2020/12/22 08:47:18;;;;;;;10.40;9.45;;;;;;;6.46;83.74;99969.19;5032509;28;20061;-88
2020/12/22 08:49:44;;;;;;;18.05;7.68;;;;;;;5.98;84.83;99962.81;5035549;28;20069;-88
2020/12/22 08:52:14;;;;;;;10.50;9.48;;;;;;;5.41;88.02;99944.84;5017532;28;20033;-90
2020/12/22 08:54:41;;;;;;;7.10;6.53;;;;;;;5.72;88.21;99982.06;5031042;28;20092;-89
2020/12/22 08:57:13;;;;;;;12.57;6.30;;;;;;;5.65;87.29;99944.38;5037542;28;20044;-87
2020/12/22 08:59:39;;;;;;;9.50;7.95;;;;;;;5.75;87.01;99970.34;5033759;28;20031;-88
2020/12/22 09:02:04;;;;;;;9.70;8.48;;;;;;;5.98;86.31;99971.03;5034150;28;20096;-87
2020/12/22 09:04:31;;;;;;;14.05;6.63;;;;;;;6.08;85.43;99975.09;5036607;28;20045;-89
2020/12/22 09:06:58;;;;;;;9.82;8.63;;;;;;;6.13;85.09;99977.50;5037812;28;20029;-88
2020/12/22 09:09:33;;;;;;;12.73;7.53;;;;;;;5.44;86.00;99900.25;5037278;28;20025;-90
2020/12/22 09:12:07;;;;;;;22.90;12.25;;;;;;;6.01;84.44;99953.84;5037101;28;20076;-88
2020/12/22 09:14:38;;;;;;;35.13;10.45;;;;;;;5.78;84.13;99911.25;5037510;28;20024;-85
2020/12/22 09:17:04;;;;;;;15.25;7.18;;;;;;;5.85;85.38;99968.88;5037330;28;20477;-88
2020/12/22 09:19:49;;;;;;;2.90;2.78;;;;;;;5.74;85.62;99988.75;5037238;28;20021;-90
2020/12/22 09:22:26;;;;;;;7.15;3.40;;;;;;;5.85;85.81;99960.66;5037768;28;20473;-88
2020/12/22 09:24:55;;;;;;;11.55;9.43;;;;;;;5.68;86.78;99964.78;5033811;28;20029;-88
2020/12/22 09:27:38;;;;;;;6.85;6.18;;;;;;;5.58;88.26;99966.22;5017756;28;20025;-88
2020/12/22 09:30:09;;;;;;;7.93;7.03;;;;;;;5.47;88.36;99959.81;5017185;28;20021;-95
2020/12/22 09:32:35;;;;;;;8.90;8.23;;;;;;;5.47;88.68;99956.28;5017580;28;20120;-92
2020/12/22 09:35:00;;;;;;;6.80;6.30;;;;;;;5.35;89.51;99951.03;5030980;28;20388;-92
2020/12/22 09:37:26;;;;;;;13.60;10.50;;;;;;;5.39;88.67;99930.72;5036805;28;20035;-91
2020/12/22 09:39:53;;;;;;;14.98;9.35;;;;;;;5.37;88.63;99921.28;5037292;28;20056;-92
2020/12/22 09:42:24;;;;;;;6.35;5.80;;;;;;;5.58;88.63;99949.78;5037158;28;20021;-93
2020/12/22 09:44:50;;;;;;;14.20;8.02;;;;;;;5.76;87.10;99927.25;5036386;28;20025;-91
2020/12/22 09:47:16;;;;;;;9.02;8.15;;;;;;;5.72;84.82;99875.94;5053173;28;20488;-90
2020/12/22 09:49:42;;;;;;;20.52;8.32;;;;;;;6.35;84.21;99918.09;5034448;28;20036;-91
2020/12/22 09:52:07;;;;;;;13.93;8.80;;;;;;;6.48;83.72;99890.00;5016646;28;20029;-89
2020/12/22 09:54:33;;;;;;;10.43;8.02;;;;;;;6.79;81.45;99935.38;5017709;28;20033;-86
2020/12/22 09:56:59;;;;;;;9.82;8.98;;;;;;;6.69;82.47;99924.31;5035694;28;20037;-85
2020/12/22 09:59:24;;;;;;;5.85;5.13;;;;;;;6.86;81.88;99912.66;5036692;28;20477;-88
2020/12/22 10:01:55;;;;;;;7.53;6.00;;;;;;;7.13;81.18;99908.50;5039483;28;20013;-93
2020/12/22 10:04:20;;;;;;;9.05;8.38;;;;;;;7.27;80.02;99891.31;5038916;28;20029;-87
2020/12/22 10:06:49;;;;;;;7.05;6.40;;;;;;;7.55;78.14;99869.44;5036991;28;20063;-86
2020/12/22 10:09:14;;;;;;;18.27;7.95;;;;;;;7.95;78.00;99904.16;5036168;28;20037;-88
2020/12/22 10:11:39;;;;;;;11.43;6.78;;;;;;;8.21;75.17;99866.44;5055369;28;20082;-86
2020/12/22 10:14:05;;;;;;;7.38;6.68;;;;;;;8.62;72.87;99900.69;5037274;28;20487;-87
2020/12/22 10:16:31;;;;;;;17.63;6.10;;;;;;;8.46;72.06;99865.31;5038739;28;20033;-86
2020/12/22 10:18:57;;;;;;;19.70;6.75;;;;;;;8.78;71.61;99911.34;5036108;28;20558;-88
2020/12/22 10:21:23;;;;;;;9.10;6.20;;;;;;;8.51;71.86;99886.94;5035940;28;20021;-87
2020/12/22 10:23:50;;;;;;;11.88;8.88;;;;;;;8.22;72.70;99868.00;5035840;28;20028;-86
2020/12/22 10:26:20;;;;;;;15.80;7.65;;;;;;;8.50;72.52;99899.13;5035729;28;20098;-84
2020/12/22 10:28:48;;;;;;;5.78;4.82;;;;;;;8.22;72.78;99884.53;5035603;28;20576;-86
2020/12/22 10:31:16;;;;;;;9.65;7.13;;;;;;;8.63;72.66;99874.72;5045988;28;20365;-84
2020/12/22 10:33:42;;;;;;;12.35;9.88;;;;;;;8.57;72.57;99857.81;5037911;28;20115;-88
2020/12/22 10:36:11;;;;;;;10.98;5.85;;;;;;;8.26;72.96;99880.59;5035913;28;20029;-85
2020/12/22 10:38:36;;;;;;;7.63;5.95;;;;;;;8.35;73.36;99883.00;5035494;28;20029;-83
2020/12/22 10:41:02;;;;;;;18.20;5.20;;;;;;;8.79;71.91;99888.91;5036246;28;20025;-82
2020/12/22 10:43:27;;;;;;;5.43;4.93;;;;;;;8.94;70.14;99890.44;5037621;28;20405;-80
2020/12/22 10:45:53;;;;;;;13.88;8.52;;;;;;;9.05;70.42;99895.16;5035892;28;20056;-82
2020/12/22 10:48:18;;;;;;;8.32;6.35;;;;;;;9.08;69.68;99910.91;5035535;28;20090;-80
2020/12/22 10:50:44;;;;;;;8.73;7.47;;;;;;;9.24;70.00;99898.25;5035062;28;20029;-81
2020/12/22 10:53:10;;;;;;;14.10;7.30;;;;;;;9.33;69.42;99884.84;5034824;28;20039;-80
2020/12/22 10:55:35;;;;;;;46.72;21.73;;;;;;;8.97;71.35;99877.84;5035682;28;20044;-82
2020/12/22 10:58:02;;;;;;;18.83;10.90;;;;;;;9.20;71.54;99874.66;5035511;28;20053;-80
2020/12/22 11:00:28;;;;;;;7.13;6.50;;;;;;;8.81;71.46;99867.22;5035420;28;20036;-82
2020/12/22 11:02:54;;;;;;;16.35;11.13;;;;;;;7.99;73.62;99851.88;5035201;28;20561;-87
2020/12/22 11:08:05;;;;;;;19.88;12.88;;;;;;;8.28;74.04;99850.72;5053462;28;20099;-86
2020/12/22 11:10:30;;;;;;;10.10;6.97;;;;;;;7.94;73.81;99833.00;5052327;28;20033;-89
2020/12/22 11:12:56;;;;;;;9.93;8.23;;;;;;;8.22;73.03;99835.75;5053698;28;20029;-83
2020/12/22 11:15:22;;;;;;;13.02;7.65;;;;;;;8.23;72.05;99859.38;5051658;28;20032;-85
2020/12/22 11:17:47;;;;;;;10.32;4.85;;;;;;;8.26;71.99;99855.06;5055843;28;20033;-85
2020/12/22 11:20:12;;;;;;;4.28;3.92;;;;;;;8.15;71.50;99811.78;5056108;28;20021;-83
2020/12/22 11:22:38;;;;;;;7.50;6.80;;;;;;;8.69;70.48;99850.31;5055820;28;20025;-83
2020/12/22 11:25:03;;;;;;;6.75;4.38;;;;;;;8.32;71.59;99848.00;5056347;28;20057;-83
2020/12/22 11:27:29;;;;;;;7.07;6.25;;;;;;;8.49;71.42;99841.72;5055799;28;20021;-82
2020/12/22 11:29:54;;;;;;;11.85;6.50;;;;;;;8.82;70.45;99841.25;5055932;28;20064;-82
2020/12/22 11:32:20;;;;;;;7.50;5.18;;;;;;;8.97;69.71;99837.31;5055665;28;20493;-82
2020/12/22 11:34:45;;;;;;;8.18;6.47;;;;;;;8.91;69.56;99824.31;5055620;28;20029;-83
2020/12/22 11:37:11;;;;;;;8.75;3.97;;;;;;;8.65;70.62;99822.78;5055738;28;20028;-83
2020/12/22 11:39:36;;;;;;;4.90;4.20;;;;;;;8.79;70.24;99825.53;5055521;28;20043;-82
2020/12/22 11:42:04;;;;;;;11.48;9.23;;;;;;;8.84;69.80;99825.13;5055962;28;20029;-84